sensor_id;sensor_type;location;lat;lon;timestamp;temperature;humidity
78455;SHT31;67751;51.986;5.696;2023-07-20T00:01:57;19.4;70.6
78455;SHT31;67751;51.986;5.696;2023-07-20T00:04:26;19.3;70.3
78455;SHT31;67751;51.986;5.696;2023-07-20T00:06:56;19.3;70.5
78455;SHT31;67751;51.986;5.696;2023-07-20T00:09:26;19.3;70.4
78455;SHT31;67751;51.986;5.696;2023-07-20T00:11:57;19.3;70.9
78455;SHT31;67751;51.986;5.696;2023-07-20T00:14:27;19.3;71.0
78455;SHT31;67751;51.986;5.696;2023-07-20T00:16:57;19.3;70.8
78455;SHT31;67751;51.986;5.696;2023-07-20T00:19:27;19.3;70.6
78455;SHT31;67751;51.986;5.696;2023-07-20T00:21:59;19.3;70.6
78455;SHT31;67751;51.986;5.696;2023-07-20T00:24:29;19.3;71.3
78455;SHT31;67751;51.986;5.696;2023-07-20T00:26:58;19.3;71.2
78455;SHT31;67751;51.986;5.696;2023-07-20T00:29:28;19.2;71.3
78455;SHT31;67751;51.986;5.696;2023-07-20T00:31:58;19.2;71.1
78455;SHT31;67751;51.986;5.696;2023-07-20T00:34:30;19.2;71.0
78455;SHT31;67751;51.986;5.696;2023-07-20T00:36:59;19.2;70.5
78455;SHT31;67751;51.986;5.696;2023-07-20T00:39:29;19.1;70.9
78455;SHT31;67751;51.986;5.696;2023-07-20T00:41:58;19.1;71.5
78455;SHT31;67751;51.986;5.696;2023-07-20T00:44:29;19.1;71.4
78455;SHT31;67751;51.986;5.696;2023-07-20T00:47:01;19.1;71.4
78455;SHT31;67751;51.986;5.696;2023-07-20T00:49:31;19.1;71.5
78455;SHT31;67751;51.986;5.696;2023-07-20T00:52:03;19.0;71.3
78455;SHT31;67751;51.986;5.696;2023-07-20T00:54:36;19.0;71.8
78455;SHT31;67751;51.986;5.696;2023-07-20T00:57:07;19.0;71.7
78455;SHT31;67751;51.986;5.696;2023-07-20T00:59:37;19.0;71.6
78455;SHT31;67751;51.986;5.696;2023-07-20T01:02:07;19.0;71.6
78455;SHT31;67751;51.986;5.696;2023-07-20T01:04:36;18.9;71.5
78455;SHT31;67751;51.986;5.696;2023-07-20T01:07:17;18.9;71.8
78455;SHT31;67751;51.986;5.696;2023-07-20T01:09:59;18.9;72.1
78455;SHT31;67751;51.986;5.696;2023-07-20T01:12:39;18.9;72.1
78455;SHT31;67751;51.986;5.696;2023-07-20T01:15:11;18.9;71.7
78455;SHT31;67751;51.986;5.696;2023-07-20T01:17:41;18.9;71.6
78455;SHT31;67751;51.986;5.696;2023-07-20T01:20:14;18.9;71.7
78455;SHT31;67751;51.986;5.696;2023-07-20T01:27:22;18.8;70.9
78455;SHT31;67751;51.986;5.696;2023-07-20T01:30:18;18.8;71.2
78455;SHT31;67751;51.986;5.696;2023-07-20T01:32:54;18.8;70.8
78455;SHT31;67751;51.986;5.696;2023-07-20T01:35:29;18.7;71.4
78455;SHT31;67751;51.986;5.696;2023-07-20T01:37:59;18.7;70.9
78455;SHT31;67751;51.986;5.696;2023-07-20T01:40:31;18.7;70.9
78455;SHT31;67751;51.986;5.696;2023-07-20T01:43:04;18.7;71.5
78455;SHT31;67751;51.986;5.696;2023-07-20T01:45:33;18.7;71.4
78455;SHT31;67751;51.986;5.696;2023-07-20T01:48:03;18.7;71.2
78455;SHT31;67751;51.986;5.696;2023-07-20T01:50:33;18.6;71.2
78455;SHT31;67751;51.986;5.696;2023-07-20T01:53:03;18.6;71.3
78455;SHT31;67751;51.986;5.696;2023-07-20T01:55:32;18.6;71.5
78455;SHT31;67751;51.986;5.696;2023-07-20T01:58:02;18.6;71.6
78455;SHT31;67751;51.986;5.696;2023-07-20T02:00:33;18.6;71.3
78455;SHT31;67751;51.986;5.696;2023-07-20T02:03:03;18.6;71.2
78455;SHT31;67751;51.986;5.696;2023-07-20T02:05:32;18.6;70.9
78455;SHT31;67751;51.986;5.696;2023-07-20T02:08:02;18.5;70.9
78455;SHT31;67751;51.986;5.696;2023-07-20T02:10:31;18.5;71.2
78455;SHT31;67751;51.986;5.696;2023-07-20T02:13:01;18.5;71.1
78455;SHT31;67751;51.986;5.696;2023-07-20T02:15:31;18.5;70.5
78455;SHT31;67751;51.986;5.696;2023-07-20T02:18:00;18.5;70.4
78455;SHT31;67751;51.986;5.696;2023-07-20T02:20:31;18.5;70.8
78455;SHT31;67751;51.986;5.696;2023-07-20T02:23:01;18.5;70.4
78455;SHT31;67751;51.986;5.696;2023-07-20T02:25:30;18.4;70.6
78455;SHT31;67751;51.986;5.696;2023-07-20T02:28:00;18.4;70.5
78455;SHT31;67751;51.986;5.696;2023-07-20T02:30:29;18.4;69.9
78455;SHT31;67751;51.986;5.696;2023-07-20T02:32:59;18.4;70.3
78455;SHT31;67751;51.986;5.696;2023-07-20T02:35:29;18.4;70.0
78455;SHT31;67751;51.986;5.696;2023-07-20T02:37:59;18.4;69.5
78455;SHT31;67751;51.986;5.696;2023-07-20T02:40:28;18.3;69.5
78455;SHT31;67751;51.986;5.696;2023-07-20T02:42:58;18.3;69.5
78455;SHT31;67751;51.986;5.696;2023-07-20T02:45:29;18.3;69.4
78455;SHT31;67751;51.986;5.696;2023-07-20T02:47:58;18.3;69.3
78455;SHT31;67751;51.986;5.696;2023-07-20T02:50:28;18.2;69.3
78455;SHT31;67751;51.986;5.696;2023-07-20T02:52:57;18.2;69.4
78455;SHT31;67751;51.986;5.696;2023-07-20T02:55:27;18.2;69.4
78455;SHT31;67751;51.986;5.696;2023-07-20T02:57:57;18.1;69.3
78455;SHT31;67751;51.986;5.696;2023-07-20T03:00:26;18.1;69.4
78455;SHT31;67751;51.986;5.696;2023-07-20T03:02:56;18.1;69.3
78455;SHT31;67751;51.986;5.696;2023-07-20T03:05:26;18.0;69.5
78455;SHT31;67751;51.986;5.696;2023-07-20T03:07:55;18.0;69.6
78455;SHT31;67751;51.986;5.696;2023-07-20T03:10:30;18.0;70.1
78455;SHT31;67751;51.986;5.696;2023-07-20T03:12:59;17.9;70.2
78455;SHT31;67751;51.986;5.696;2023-07-20T03:15:29;17.9;69.9
78455;SHT31;67751;51.986;5.696;2023-07-20T03:17:59;17.9;69.8
78455;SHT31;67751;51.986;5.696;2023-07-20T03:20:28;17.9;69.8
78455;SHT31;67751;51.986;5.696;2023-07-20T03:22:58;17.9;69.6
78455;SHT31;67751;51.986;5.696;2023-07-20T03:25:29;17.9;69.3
78455;SHT31;67751;51.986;5.696;2023-07-20T03:27:59;17.8;68.9
78455;SHT31;67751;51.986;5.696;2023-07-20T03:30:29;17.8;68.9
78455;SHT31;67751;51.986;5.696;2023-07-20T03:32:58;17.8;68.6
78455;SHT31;67751;51.986;5.696;2023-07-20T03:35:30;17.7;69.0
78455;SHT31;67751;51.986;5.696;2023-07-20T03:38:01;17.7;69.1
78455;SHT31;67751;51.986;5.696;2023-07-20T03:40:31;17.7;69.3
78455;SHT31;67751;51.986;5.696;2023-07-20T03:43:01;17.7;69.4
78455;SHT31;67751;51.986;5.696;2023-07-20T03:45:31;17.6;69.1
78455;SHT31;67751;51.986;5.696;2023-07-20T03:48:00;17.6;69.1
78455;SHT31;67751;51.986;5.696;2023-07-20T03:50:30;17.6;69.3
78455;SHT31;67751;51.986;5.696;2023-07-20T03:53:00;17.5;69.0
78455;SHT31;67751;51.986;5.696;2023-07-20T03:55:30;17.5;68.9
78455;SHT31;67751;51.986;5.696;2023-07-20T03:57:59;17.5;68.9
78455;SHT31;67751;51.986;5.696;2023-07-20T04:00:29;17.5;69.2
78455;SHT31;67751;51.986;5.696;2023-07-20T04:02:59;17.4;69.2
78455;SHT31;67751;51.986;5.696;2023-07-20T04:05:28;17.4;68.9
78455;SHT31;67751;51.986;5.696;2023-07-20T04:07:58;17.4;68.9
78455;SHT31;67751;51.986;5.696;2023-07-20T04:10:28;17.4;69.2
78455;SHT31;67751;51.986;5.696;2023-07-20T04:12:57;17.3;69.6
78455;SHT31;67751;51.986;5.696;2023-07-20T04:15:29;17.3;69.8
78455;SHT31;67751;51.986;5.696;2023-07-20T04:17:59;17.3;70.5
78455;SHT31;67751;51.986;5.696;2023-07-20T04:20:29;17.3;69.9
78455;SHT31;67751;51.986;5.696;2023-07-20T04:22:59;17.3;70.2
78455;SHT31;67751;51.986;5.696;2023-07-20T04:25:29;17.3;70.5
78455;SHT31;67751;51.986;5.696;2023-07-20T04:28:03;17.3;71.1
78455;SHT31;67751;51.986;5.696;2023-07-20T04:30:37;17.3;71.5
78455;SHT31;67751;51.986;5.696;2023-07-20T04:33:07;17.3;71.2
78455;SHT31;67751;51.986;5.696;2023-07-20T04:35:53;17.3;71.8
78455;SHT31;67751;51.986;5.696;2023-07-20T04:38:25;17.3;71.8
78455;SHT31;67751;51.986;5.696;2023-07-20T04:40:55;17.3;72.1
78455;SHT31;67751;51.986;5.696;2023-07-20T04:43:25;17.3;72.7
78455;SHT31;67751;51.986;5.696;2023-07-20T04:45:55;17.3;73.0
78455;SHT31;67751;51.986;5.696;2023-07-20T04:48:25;17.3;73.2
78455;SHT31;67751;51.986;5.696;2023-07-20T04:50:55;17.4;73.6
78455;SHT31;67751;51.986;5.696;2023-07-20T04:53:24;17.4;73.8
78455;SHT31;67751;51.986;5.696;2023-07-20T04:55:54;17.4;73.7
78455;SHT31;67751;51.986;5.696;2023-07-20T04:58:24;17.4;73.9
78455;SHT31;67751;51.986;5.696;2023-07-20T05:00:53;17.4;74.0
78455;SHT31;67751;51.986;5.696;2023-07-20T05:03:25;17.5;73.9
78455;SHT31;67751;51.986;5.696;2023-07-20T05:05:55;17.5;73.8
78455;SHT31;67751;51.986;5.696;2023-07-20T05:08:25;17.5;73.7
78455;SHT31;67751;51.986;5.696;2023-07-20T05:10:54;17.5;73.9
78455;SHT31;67751;51.986;5.696;2023-07-20T05:13:24;17.6;74.3
78455;SHT31;67751;51.986;5.696;2023-07-20T05:15:54;17.6;74.4
78455;SHT31;67751;51.986;5.696;2023-07-20T05:18:23;17.6;74.8
78455;SHT31;67751;51.986;5.696;2023-07-20T05:20:53;17.6;75.1
78455;SHT31;67751;51.986;5.696;2023-07-20T05:23:24;17.7;75.0
78455;SHT31;67751;51.986;5.696;2023-07-20T05:25:56;17.7;75.3
78455;SHT31;67751;51.986;5.696;2023-07-20T05:28:26;17.7;75.4
78455;SHT31;67751;51.986;5.696;2023-07-20T05:30:56;17.8;75.5
78455;SHT31;67751;51.986;5.696;2023-07-20T05:33:27;17.8;75.4
78455;SHT31;67751;51.986;5.696;2023-07-20T05:35:56;17.8;75.3
78455;SHT31;67751;51.986;5.696;2023-07-20T05:38:28;17.8;75.0
78455;SHT31;67751;51.986;5.696;2023-07-20T05:41:00;17.9;75.0
78455;SHT31;67751;51.986;5.696;2023-07-20T05:43:31;17.9;75.1
78455;SHT31;67751;51.986;5.696;2023-07-20T05:46:03;17.9;75.3
78455;SHT31;67751;51.986;5.696;2023-07-20T05:48:32;18.0;74.8
78455;SHT31;67751;51.986;5.696;2023-07-20T05:51:02;18.0;74.6
78455;SHT31;67751;51.986;5.696;2023-07-20T05:53:34;18.0;74.6
78455;SHT31;67751;51.986;5.696;2023-07-20T05:56:05;18.0;74.5
78455;SHT31;67751;51.986;5.696;2023-07-20T05:58:37;18.0;75.0
78455;SHT31;67751;51.986;5.696;2023-07-20T06:01:07;18.0;74.9
78455;SHT31;67751;51.986;5.696;2023-07-20T06:03:36;18.0;74.7
78455;SHT31;67751;51.986;5.696;2023-07-20T06:06:06;18.1;74.6
78455;SHT31;67751;51.986;5.696;2023-07-20T06:08:39;18.1;74.6
78455;SHT31;67751;51.986;5.696;2023-07-20T06:11:09;18.1;74.8
78455;SHT31;67751;51.986;5.696;2023-07-20T06:13:40;18.1;75.1
78455;SHT31;67751;51.986;5.696;2023-07-20T06:16:11;18.1;75.4
78455;SHT31;67751;51.986;5.696;2023-07-20T06:18:41;18.2;75.4
78455;SHT31;67751;51.986;5.696;2023-07-20T06:21:10;18.2;74.5
78455;SHT31;67751;51.986;5.696;2023-07-20T06:23:40;18.2;74.6
78455;SHT31;67751;51.986;5.696;2023-07-20T06:26:10;18.2;74.6
78455;SHT31;67751;51.986;5.696;2023-07-20T06:28:40;18.2;74.1
78455;SHT31;67751;51.986;5.696;2023-07-20T06:31:09;18.2;74.2
78455;SHT31;67751;51.986;5.696;2023-07-20T06:33:39;18.2;74.2
78455;SHT31;67751;51.986;5.696;2023-07-20T06:36:10;18.3;73.9
78455;SHT31;67751;51.986;5.696;2023-07-20T06:38:40;18.3;73.9
78455;SHT31;67751;51.986;5.696;2023-07-20T06:41:11;18.3;74.8
78455;SHT31;67751;51.986;5.696;2023-07-20T06:43:41;18.3;74.8
78455;SHT31;67751;51.986;5.696;2023-07-20T06:46:10;18.3;74.8
78455;SHT31;67751;51.986;5.696;2023-07-20T06:48:40;18.3;74.9
78455;SHT31;67751;51.986;5.696;2023-07-20T06:51:09;18.4;74.4
78455;SHT31;67751;51.986;5.696;2023-07-20T06:53:41;18.4;73.7
78455;SHT31;67751;51.986;5.696;2023-07-20T06:56:11;18.4;73.9
78455;SHT31;67751;51.986;5.696;2023-07-20T06:58:40;18.4;74.1
78455;SHT31;67751;51.986;5.696;2023-07-20T07:01:10;18.4;71.7
78455;SHT31;67751;51.986;5.696;2023-07-20T07:03:41;18.4;68.7
78455;SHT31;67751;51.986;5.696;2023-07-20T07:06:11;18.4;70.8
78455;SHT31;67751;51.986;5.696;2023-07-20T07:08:40;18.4;71.1
78455;SHT31;67751;51.986;5.696;2023-07-20T07:11:12;18.4;71.8
78455;SHT31;67751;51.986;5.696;2023-07-20T07:13:41;18.4;70.2
78455;SHT31;67751;51.986;5.696;2023-07-20T07:16:14;18.5;70.2
78455;SHT31;67751;51.986;5.696;2023-07-20T07:18:46;18.5;71.2
78455;SHT31;67751;51.986;5.696;2023-07-20T07:21:16;18.5;70.1
78455;SHT31;67751;51.986;5.696;2023-07-20T07:23:46;18.5;70.4
78455;SHT31;67751;51.986;5.696;2023-07-20T07:26:16;18.6;70.2
78455;SHT31;67751;51.986;5.696;2023-07-20T07:28:46;18.6;69.0
78455;SHT31;67751;51.986;5.696;2023-07-20T07:31:16;18.6;70.1
78455;SHT31;67751;51.986;5.696;2023-07-20T07:33:46;18.6;70.6
78455;SHT31;67751;51.986;5.696;2023-07-20T07:36:15;18.6;70.9
78455;SHT31;67751;51.986;5.696;2023-07-20T07:38:45;18.6;70.2
78455;SHT31;67751;51.986;5.696;2023-07-20T07:41:15;18.6;70.1
78455;SHT31;67751;51.986;5.696;2023-07-20T07:43:45;18.6;70.3
78455;SHT31;67751;51.986;5.696;2023-07-20T07:46:15;18.7;70.6
78455;SHT31;67751;51.986;5.696;2023-07-20T07:48:45;18.7;71.2
78455;SHT31;67751;51.986;5.696;2023-07-20T07:51:15;18.7;69.9
78455;SHT31;67751;51.986;5.696;2023-07-20T07:53:46;18.7;69.4
78455;SHT31;67751;51.986;5.696;2023-07-20T07:56:16;18.7;68.4
78455;SHT31;67751;51.986;5.696;2023-07-20T07:58:50;18.7;68.5
78455;SHT31;67751;51.986;5.696;2023-07-20T08:01:20;18.7;69.4
78455;SHT31;67751;51.986;5.696;2023-07-20T08:03:49;18.8;69.4
78455;SHT31;67751;51.986;5.696;2023-07-20T08:06:19;18.8;68.4
78455;SHT31;67751;51.986;5.696;2023-07-20T08:08:49;18.8;66.9
78455;SHT31;67751;51.986;5.696;2023-07-20T08:11:18;18.9;67.3
78455;SHT31;67751;51.986;5.696;2023-07-20T08:13:48;18.9;63.2
78455;SHT31;67751;51.986;5.696;2023-07-20T08:16:17;18.9;67.4
78455;SHT31;67751;51.986;5.696;2023-07-20T08:18:47;19.0;65.4
78455;SHT31;67751;51.986;5.696;2023-07-20T08:21:17;19.0;61.0
78455;SHT31;67751;51.986;5.696;2023-07-20T08:23:47;19.0;62.0
78455;SHT31;67751;51.986;5.696;2023-07-20T08:26:17;19.1;61.8
78455;SHT31;67751;51.986;5.696;2023-07-20T08:28:49;19.1;63.3
78455;SHT31;67751;51.986;5.696;2023-07-20T08:31:19;19.2;61.4
78455;SHT31;67751;51.986;5.696;2023-07-20T08:33:49;19.2;62.3
78455;SHT31;67751;51.986;5.696;2023-07-20T08:36:20;19.3;61.9
78455;SHT31;67751;51.986;5.696;2023-07-20T08:38:50;19.3;63.2
78455;SHT31;67751;51.986;5.696;2023-07-20T08:41:20;19.4;64.6
78455;SHT31;67751;51.986;5.696;2023-07-20T08:43:53;19.4;63.5
78455;SHT31;67751;51.986;5.696;2023-07-20T08:46:26;19.5;64.7
78455;SHT31;67751;51.986;5.696;2023-07-20T08:48:57;19.6;65.5
78455;SHT31;67751;51.986;5.696;2023-07-20T08:51:30;19.7;64.4
78455;SHT31;67751;51.986;5.696;2023-07-20T08:54:03;19.7;63.5
78455;SHT31;67751;51.986;5.696;2023-07-20T08:56:34;19.8;61.1
78455;SHT31;67751;51.986;5.696;2023-07-20T08:59:04;19.9;60.9
78455;SHT31;67751;51.986;5.696;2023-07-20T09:01:36;19.9;60.3
78455;SHT31;67751;51.986;5.696;2023-07-20T09:04:08;20.0;59.3
78455;SHT31;67751;51.986;5.696;2023-07-20T09:06:38;20.0;59.3
78455;SHT31;67751;51.986;5.696;2023-07-20T09:09:10;20.1;59.1
78455;SHT31;67751;51.986;5.696;2023-07-20T09:11:40;20.1;60.2
78455;SHT31;67751;51.986;5.696;2023-07-20T09:14:10;20.2;59.4
78455;SHT31;67751;51.986;5.696;2023-07-20T09:16:50;20.2;57.4
78455;SHT31;67751;51.986;5.696;2023-07-20T09:19:21;20.3;59.4
78455;SHT31;67751;51.986;5.696;2023-07-20T09:21:51;20.3;59.2
78455;SHT31;67751;51.986;5.696;2023-07-20T09:24:21;20.4;58.6
78455;SHT31;67751;51.986;5.696;2023-07-20T09:26:52;20.4;58.5
78455;SHT31;67751;51.986;5.696;2023-07-20T09:29:22;20.4;59.7
78455;SHT31;67751;51.986;5.696;2023-07-20T09:32:03;20.5;60.0
78455;SHT31;67751;51.986;5.696;2023-07-20T09:34:33;20.5;58.5
78455;SHT31;67751;51.986;5.696;2023-07-20T09:37:05;20.6;58.3
78455;SHT31;67751;51.986;5.696;2023-07-20T09:39:45;20.6;58.2
78455;SHT31;67751;51.986;5.696;2023-07-20T09:42:16;20.6;55.1
78455;SHT31;67751;51.986;5.696;2023-07-20T09:44:48;20.6;55.6
78455;SHT31;67751;51.986;5.696;2023-07-20T09:47:24;20.6;56.8
78455;SHT31;67751;51.986;5.696;2023-07-20T09:49:57;20.6;57.4
78455;SHT31;67751;51.986;5.696;2023-07-20T09:52:29;20.6;57.0
78455;SHT31;67751;51.986;5.696;2023-07-20T09:55:01;20.6;59.1
78455;SHT31;67751;51.986;5.696;2023-07-20T09:57:32;20.6;59.3
78455;SHT31;67751;51.986;5.696;2023-07-20T10:00:04;20.6;57.5
78455;SHT31;67751;51.986;5.696;2023-07-20T10:02:44;20.6;58.6
78455;SHT31;67751;51.986;5.696;2023-07-20T10:05:14;20.6;59.0
78455;SHT31;67751;51.986;5.696;2023-07-20T10:07:49;20.6;57.2
78455;SHT31;67751;51.986;5.696;2023-07-20T10:10:20;20.6;60.2
78455;SHT31;67751;51.986;5.696;2023-07-20T10:12:50;20.6;60.5
78455;SHT31;67751;51.986;5.696;2023-07-20T10:15:24;20.6;62.6
78455;SHT31;67751;51.986;5.696;2023-07-20T10:18:02;20.6;62.0
78455;SHT31;67751;51.986;5.696;2023-07-20T10:20:35;20.6;61.0
78455;SHT31;67751;51.986;5.696;2023-07-20T10:23:06;20.6;61.3
78455;SHT31;67751;51.986;5.696;2023-07-20T10:25:36;20.6;61.6
78455;SHT31;67751;51.986;5.696;2023-07-20T10:28:10;20.6;57.3
78455;SHT31;67751;51.986;5.696;2023-07-20T10:30:41;20.6;55.7
78455;SHT31;67751;51.986;5.696;2023-07-20T10:33:12;20.6;57.2
78455;SHT31;67751;51.986;5.696;2023-07-20T10:35:56;20.6;57.1
78455;SHT31;67751;51.986;5.696;2023-07-20T10:38:40;20.6;56.7
78455;SHT31;67751;51.986;5.696;2023-07-20T10:41:21;20.6;57.8
78455;SHT31;67751;51.986;5.696;2023-07-20T10:43:58;20.6;58.1
78455;SHT31;67751;51.986;5.696;2023-07-20T10:46:45;20.6;55.7
78455;SHT31;67751;51.986;5.696;2023-07-20T10:49:15;20.6;56.9
78455;SHT31;67751;51.986;5.696;2023-07-20T10:51:59;20.6;56.2
78455;SHT31;67751;51.986;5.696;2023-07-20T10:54:50;20.6;57.0
78455;SHT31;67751;51.986;5.696;2023-07-20T10:57:31;20.6;58.1
78455;SHT31;67751;51.986;5.696;2023-07-20T11:00:12;20.6;55.9
78455;SHT31;67751;51.986;5.696;2023-07-20T11:02:47;20.6;57.3
78455;SHT31;67751;51.986;5.696;2023-07-20T11:05:37;20.6;54.8
78455;SHT31;67751;51.986;5.696;2023-07-20T11:08:10;20.6;57.0
78455;SHT31;67751;51.986;5.696;2023-07-20T11:10:41;20.6;56.3
78455;SHT31;67751;51.986;5.696;2023-07-20T11:13:21;20.6;57.9
78455;SHT31;67751;51.986;5.696;2023-07-20T11:16:04;20.7;57.2
78455;SHT31;67751;51.986;5.696;2023-07-20T11:18:37;20.7;58.6
78455;SHT31;67751;51.986;5.696;2023-07-20T11:21:09;20.7;54.9
78455;SHT31;67751;51.986;5.696;2023-07-20T11:23:40;20.7;55.7
78455;SHT31;67751;51.986;5.696;2023-07-20T11:26:10;20.7;57.0
78455;SHT31;67751;51.986;5.696;2023-07-20T11:28:40;20.8;56.6
78455;SHT31;67751;51.986;5.696;2023-07-20T11:31:09;20.8;57.5
78455;SHT31;67751;51.986;5.696;2023-07-20T11:33:41;20.8;56.6
78455;SHT31;67751;51.986;5.696;2023-07-20T11:36:11;20.8;55.2
78455;SHT31;67751;51.986;5.696;2023-07-20T11:38:43;20.8;55.6
78455;SHT31;67751;51.986;5.696;2023-07-20T11:41:13;20.8;56.5
78455;SHT31;67751;51.986;5.696;2023-07-20T11:43:43;20.9;56.6
78455;SHT31;67751;51.986;5.696;2023-07-20T11:46:15;20.9;55.8
78455;SHT31;67751;51.986;5.696;2023-07-20T11:48:45;20.9;55.5
78455;SHT31;67751;51.986;5.696;2023-07-20T11:51:16;21.0;51.8
78455;SHT31;67751;51.986;5.696;2023-07-20T11:53:47;21.0;50.4
78455;SHT31;67751;51.986;5.696;2023-07-20T11:56:17;21.1;53.4
78455;SHT31;67751;51.986;5.696;2023-07-20T11:58:46;21.1;53.2
78455;SHT31;67751;51.986;5.696;2023-07-20T12:01:17;21.2;54.8
78455;SHT31;67751;51.986;5.696;2023-07-20T12:03:49;21.3;53.7
78455;SHT31;67751;51.986;5.696;2023-07-20T12:06:22;21.3;52.8
78455;SHT31;67751;51.986;5.696;2023-07-20T12:08:55;21.4;54.0
78455;SHT31;67751;51.986;5.696;2023-07-20T12:11:33;21.5;53.5
78455;SHT31;67751;51.986;5.696;2023-07-20T12:14:04;21.6;51.7
78455;SHT31;67751;51.986;5.696;2023-07-20T12:16:37;21.6;51.8
78455;SHT31;67751;51.986;5.696;2023-07-20T12:19:08;21.7;50.0
78455;SHT31;67751;51.986;5.696;2023-07-20T12:21:39;21.7;51.3
78455;SHT31;67751;51.986;5.696;2023-07-20T12:24:10;21.8;53.0
78455;SHT31;67751;51.986;5.696;2023-07-20T12:26:40;21.8;49.2
78455;SHT31;67751;51.986;5.696;2023-07-20T12:29:10;21.9;51.5
78455;SHT31;67751;51.986;5.696;2023-07-20T12:31:40;21.9;49.6
78455;SHT31;67751;51.986;5.696;2023-07-20T12:34:10;22.0;50.2
78455;SHT31;67751;51.986;5.696;2023-07-20T12:36:40;22.0;49.3
78455;SHT31;67751;51.986;5.696;2023-07-20T12:39:09;22.0;48.7
78455;SHT31;67751;51.986;5.696;2023-07-20T12:41:39;22.0;49.3
78455;SHT31;67751;51.986;5.696;2023-07-20T12:44:08;22.1;47.0
78455;SHT31;67751;51.986;5.696;2023-07-20T12:46:38;22.1;46.0
78455;SHT31;67751;51.986;5.696;2023-07-20T12:49:08;22.1;47.3
78455;SHT31;67751;51.986;5.696;2023-07-20T12:51:37;22.1;48.5
78455;SHT31;67751;51.986;5.696;2023-07-20T12:54:07;22.1;48.7
78455;SHT31;67751;51.986;5.696;2023-07-20T12:56:36;22.2;47.1
78455;SHT31;67751;51.986;5.696;2023-07-20T12:59:06;22.2;49.7
78455;SHT31;67751;51.986;5.696;2023-07-20T13:01:36;22.2;47.2
78455;SHT31;67751;51.986;5.696;2023-07-20T13:04:08;22.3;49.5
78455;SHT31;67751;51.986;5.696;2023-07-20T13:06:38;22.3;49.5
78455;SHT31;67751;51.986;5.696;2023-07-20T13:09:08;22.3;51.9
78455;SHT31;67751;51.986;5.696;2023-07-20T13:11:38;22.3;48.7
78455;SHT31;67751;51.986;5.696;2023-07-20T13:14:08;22.4;47.8
78455;SHT31;67751;51.986;5.696;2023-07-20T13:16:39;22.4;49.6
78455;SHT31;67751;51.986;5.696;2023-07-20T13:19:08;22.4;51.0
78455;SHT31;67751;51.986;5.696;2023-07-20T13:21:38;22.4;48.9
78455;SHT31;67751;51.986;5.696;2023-07-20T13:24:08;22.4;48.3
78455;SHT31;67751;51.986;5.696;2023-07-20T13:26:38;22.4;48.7
78455;SHT31;67751;51.986;5.696;2023-07-20T13:29:07;22.4;48.6
78455;SHT31;67751;51.986;5.696;2023-07-20T13:31:37;22.4;50.0
78455;SHT31;67751;51.986;5.696;2023-07-20T13:34:06;22.4;49.0
78455;SHT31;67751;51.986;5.696;2023-07-20T13:36:36;22.4;50.1
78455;SHT31;67751;51.986;5.696;2023-07-20T13:39:06;22.4;48.5
78455;SHT31;67751;51.986;5.696;2023-07-20T13:41:36;22.4;47.4
78455;SHT31;67751;51.986;5.696;2023-07-20T13:44:08;22.4;48.9
78455;SHT31;67751;51.986;5.696;2023-07-20T13:46:37;22.3;49.0
78455;SHT31;67751;51.986;5.696;2023-07-20T13:49:09;22.3;49.2
78455;SHT31;67751;51.986;5.696;2023-07-20T13:51:39;22.3;47.6
78455;SHT31;67751;51.986;5.696;2023-07-20T13:54:10;22.3;47.5
78455;SHT31;67751;51.986;5.696;2023-07-20T13:56:42;22.3;46.3
78455;SHT31;67751;51.986;5.696;2023-07-20T13:59:12;22.3;45.4
78455;SHT31;67751;51.986;5.696;2023-07-20T14:01:42;22.3;45.7
78455;SHT31;67751;51.986;5.696;2023-07-20T14:04:11;22.3;46.0
78455;SHT31;67751;51.986;5.696;2023-07-20T14:06:42;22.3;47.3
78455;SHT31;67751;51.986;5.696;2023-07-20T14:09:12;22.4;47.8
78455;SHT31;67751;51.986;5.696;2023-07-20T14:11:41;22.4;46.7
78455;SHT31;67751;51.986;5.696;2023-07-20T14:14:11;22.4;45.9
78455;SHT31;67751;51.986;5.696;2023-07-20T14:16:41;22.4;46.3
78455;SHT31;67751;51.986;5.696;2023-07-20T14:19:10;22.4;46.0
78455;SHT31;67751;51.986;5.696;2023-07-20T14:21:40;22.4;47.2
78455;SHT31;67751;51.986;5.696;2023-07-20T14:24:10;22.4;46.2
78455;SHT31;67751;51.986;5.696;2023-07-20T14:26:39;22.4;47.8
78455;SHT31;67751;51.986;5.696;2023-07-20T14:29:09;22.4;47.4
78455;SHT31;67751;51.986;5.696;2023-07-20T14:31:38;22.4;46.5
78455;SHT31;67751;51.986;5.696;2023-07-20T14:34:09;22.4;47.5
78455;SHT31;67751;51.986;5.696;2023-07-20T14:36:38;22.4;49.3
78455;SHT31;67751;51.986;5.696;2023-07-20T14:39:08;22.4;51.1
78455;SHT31;67751;51.986;5.696;2023-07-20T14:41:37;22.4;48.9
78455;SHT31;67751;51.986;5.696;2023-07-20T14:44:07;22.4;49.8
78455;SHT31;67751;51.986;5.696;2023-07-20T14:46:37;22.4;46.8
78455;SHT31;67751;51.986;5.696;2023-07-20T14:49:07;22.4;47.7
78455;SHT31;67751;51.986;5.696;2023-07-20T14:51:38;22.4;47.4
78455;SHT31;67751;51.986;5.696;2023-07-20T14:54:11;22.4;46.9
78455;SHT31;67751;51.986;5.696;2023-07-20T14:56:50;22.4;45.4
78455;SHT31;67751;51.986;5.696;2023-07-20T14:59:20;22.4;46.3
78455;SHT31;67751;51.986;5.696;2023-07-20T15:01:50;22.4;46.9
78455;SHT31;67751;51.986;5.696;2023-07-20T15:04:20;22.4;47.5
78455;SHT31;67751;51.986;5.696;2023-07-20T15:06:52;22.4;48.3
78455;SHT31;67751;51.986;5.696;2023-07-20T15:09:22;22.5;46.7
78455;SHT31;67751;51.986;5.696;2023-07-20T15:11:51;22.5;48.6
78455;SHT31;67751;51.986;5.696;2023-07-20T15:14:21;22.5;49.3
78455;SHT31;67751;51.986;5.696;2023-07-20T15:16:50;22.5;48.2
78455;SHT31;67751;51.986;5.696;2023-07-20T15:19:20;22.5;49.2
78455;SHT31;67751;51.986;5.696;2023-07-20T15:21:50;22.5;48.3
78455;SHT31;67751;51.986;5.696;2023-07-20T15:24:19;22.6;49.5
78455;SHT31;67751;51.986;5.696;2023-07-20T15:26:49;22.6;49.6
78455;SHT31;67751;51.986;5.696;2023-07-20T15:29:18;22.6;49.4
78455;SHT31;67751;51.986;5.696;2023-07-20T15:31:48;22.6;48.3
78455;SHT31;67751;51.986;5.696;2023-07-20T15:34:17;22.6;48.4
78455;SHT31;67751;51.986;5.696;2023-07-20T15:36:47;22.6;46.1
78455;SHT31;67751;51.986;5.696;2023-07-20T15:39:19;22.5;48.7
78455;SHT31;67751;51.986;5.696;2023-07-20T15:41:49;22.5;48.1
78455;SHT31;67751;51.986;5.696;2023-07-20T15:44:18;22.5;49.4
78455;SHT31;67751;51.986;5.696;2023-07-20T15:46:49;22.5;47.6
78455;SHT31;67751;51.986;5.696;2023-07-20T15:49:19;22.5;48.8
78455;SHT31;67751;51.986;5.696;2023-07-20T15:51:48;22.6;50.8
78455;SHT31;67751;51.986;5.696;2023-07-20T15:54:18;22.6;48.6
78455;SHT31;67751;51.986;5.696;2023-07-20T15:56:47;22.6;48.2
78455;SHT31;67751;51.986;5.696;2023-07-20T15:59:17;22.6;45.9
78455;SHT31;67751;51.986;5.696;2023-07-20T16:01:49;22.6;46.9
78455;SHT31;67751;51.986;5.696;2023-07-20T16:04:20;22.6;47.0
78455;SHT31;67751;51.986;5.696;2023-07-20T16:06:50;22.6;47.0
78455;SHT31;67751;51.986;5.696;2023-07-20T16:09:20;22.6;48.3
78455;SHT31;67751;51.986;5.696;2023-07-20T16:11:50;22.6;48.4
78455;SHT31;67751;51.986;5.696;2023-07-20T16:14:20;22.6;47.0
78455;SHT31;67751;51.986;5.696;2023-07-20T16:16:49;22.6;46.0
78455;SHT31;67751;51.986;5.696;2023-07-20T16:19:19;22.6;46.9
78455;SHT31;67751;51.986;5.696;2023-07-20T16:21:48;22.6;47.1
78455;SHT31;67751;51.986;5.696;2023-07-20T16:24:18;22.6;49.5
78455;SHT31;67751;51.986;5.696;2023-07-20T16:26:48;22.6;48.1
78455;SHT31;67751;51.986;5.696;2023-07-20T16:29:20;22.5;50.6
78455;SHT31;67751;51.986;5.696;2023-07-20T16:31:51;22.5;49.7